createdAt,value
2023-05-03T00:00:29.935Z,46.80
2023-05-03T00:03:09.873Z,55.70
2023-05-03T00:05:42.270Z,68.22
2023-05-03T00:08:14.163Z,70.25
2023-05-03T00:10:46.830Z,74.80
2023-05-03T00:16:06.145Z,78.53
2023-05-03T00:18:40.947Z,82.07
2023-05-03T00:21:12.189Z,77.40
2023-05-03T00:23:48.935Z,70.32
2023-05-03T00:26:20.851Z,67.53
2023-05-03T00:28:55.264Z,75.97
2023-05-03T00:31:28.407Z,82.90
2023-05-03T00:34:04.157Z,86.97
2023-05-03T00:36:37.291Z,80.95
2023-05-03T00:39:11.607Z,72.85
2023-05-03T00:41:46.040Z,64.63
2023-05-03T00:44:19.617Z,62.60
2023-05-03T00:46:53.076Z,54.28
2023-05-03T00:49:26.376Z,42.85
2023-05-03T00:52:12.260Z,40.10
2023-05-03T00:54:45.933Z,36.40
2023-05-03T00:57:20.469Z,32.15
2023-05-03T00:59:53.736Z,30.60
2023-05-03T01:02:26.270Z,26.15
2023-05-03T01:07:48.327Z,22.95
2023-05-03T01:10:35.845Z,23.17
2023-05-03T01:13:41.433Z,22.98
2023-05-03T01:16:31.489Z,23.45
2023-05-03T01:19:16.777Z,21.52
2023-05-03T01:22:08.498Z,19.77
2023-05-03T01:24:48.524Z,20.42
2023-05-03T01:27:22.524Z,21.23
2023-05-03T01:30:18.634Z,20.67
2023-05-03T01:33:06.859Z,19.00
2023-05-03T01:36:14.640Z,18.00
2023-05-03T01:38:47.251Z,17.75
2023-05-03T01:44:04.352Z,16.55
2023-05-03T01:46:45.403Z,16.02
2023-05-03T01:49:17.529Z,17.48
2023-05-03T01:51:49.919Z,17.42
2023-05-03T01:54:21.683Z,14.95
2023-05-03T01:56:57.996Z,15.15
2023-05-03T01:59:46.641Z,13.60
2023-05-03T02:02:21.945Z,13.85
2023-05-03T02:04:55.873Z,12.25
2023-05-03T02:07:29.306Z,11.98
2023-05-03T02:10:04.658Z,13.18
2023-05-03T02:12:39.124Z,13.68
2023-05-03T02:15:17.574Z,12.57
2023-05-03T02:17:53.575Z,11.65
2023-05-03T02:23:10.710Z,11.82
2023-05-03T02:25:51.034Z,11.35
2023-05-03T02:28:26.385Z,10.57
2023-05-03T02:30:59.744Z,11.23
2023-05-03T02:33:31.935Z,10.45
2023-05-03T02:36:03.717Z,11.77
2023-05-03T02:38:35.939Z,10.65
2023-05-03T02:41:10.543Z,10.80
2023-05-03T02:46:41.591Z,11.43
2023-05-03T02:49:14.665Z,11.13
2023-05-03T02:51:47.842Z,10.07
2023-05-03T02:54:20.426Z,9.95
2023-05-03T02:56:52.351Z,10.43
2023-05-03T02:59:24.925Z,10.00
2023-05-03T03:01:55.804Z,10.45
2023-05-03T03:04:32.278Z,9.77
2023-05-03T03:07:01.582Z,9.45
2023-05-03T03:09:31.868Z,10.52
2023-05-03T03:12:05.135Z,10.05
2023-05-03T03:14:35.640Z,9.55
2023-05-03T03:17:13.218Z,9.63
2023-05-03T03:19:42.898Z,9.43
2023-05-03T03:22:12.461Z,9.73
2023-05-03T03:24:41.711Z,10.15
2023-05-03T03:27:10.822Z,9.60
2023-05-03T03:29:40.123Z,8.43
2023-05-03T03:32:10.327Z,8.63
2023-05-03T03:34:39.741Z,7.63
2023-05-03T03:37:09.677Z,5.80
2023-05-03T03:39:43.075Z,7.38
2023-05-03T03:42:17.175Z,7.57
2023-05-03T03:44:47.686Z,8.18
2023-05-03T03:47:16.865Z,7.38
2023-05-03T03:49:46.701Z,7.18
2023-05-03T03:52:16.234Z,7.45
2023-05-03T03:54:45.528Z,5.95
2023-05-03T03:57:15.512Z,5.75
2023-05-03T03:59:45.444Z,7.45
2023-05-03T04:02:14.562Z,7.20
2023-05-03T04:04:44.295Z,6.65
2023-05-03T04:07:13.748Z,7.43
2023-05-03T04:09:44.500Z,6.60
2023-05-03T04:12:14.451Z,7.25
2023-05-03T04:14:45.951Z,6.82
2023-05-03T04:17:15.560Z,7.82
2023-05-03T04:19:44.773Z,7.03
2023-05-03T04:22:14.938Z,6.60
2023-05-03T04:24:44.994Z,6.00
2023-05-03T04:27:15.810Z,6.45
2023-05-03T04:29:45.011Z,6.63
2023-05-03T04:32:15.461Z,6.68
2023-05-03T04:34:46.671Z,6.70
2023-05-03T04:37:17.441Z,8.80
2023-05-03T04:43:15.983Z,7.10
2023-05-03T04:45:48.267Z,7.50
2023-05-03T04:48:47.409Z,7.40
2023-05-03T04:51:18.336Z,7.03
2023-05-03T04:53:48.765Z,7.45
2023-05-03T04:56:38.443Z,8.07
2023-05-03T04:59:16.414Z,7.85
2023-05-03T05:01:46.074Z,7.70
2023-05-03T05:04:15.580Z,7.15
2023-05-03T05:06:49.673Z,7.00
2023-05-03T05:09:34.691Z,7.18
2023-05-03T05:12:05.750Z,6.90
2023-05-03T05:14:40.132Z,7.60
2023-05-03T05:17:10.425Z,7.15
2023-05-03T05:19:39.850Z,7.53
2023-05-03T05:22:09.139Z,7.70
2023-05-03T05:24:47.032Z,7.15
2023-05-03T05:27:17.773Z,7.47
2023-05-03T05:29:47.365Z,8.40
2023-05-03T05:32:16.222Z,8.95
2023-05-03T05:34:46.692Z,8.20
2023-05-03T05:37:19.269Z,8.40
2023-05-03T05:39:49.456Z,7.45
2023-05-03T05:42:27.798Z,8.48
2023-05-03T05:45:02.168Z,7.47
2023-05-03T05:47:32.077Z,7.88
2023-05-03T05:50:02.044Z,7.10
2023-05-03T05:52:33.013Z,6.78
2023-05-03T05:55:02.167Z,7.80
2023-05-03T05:57:30.978Z,8.35
2023-05-03T06:00:01.209Z,9.05
2023-05-03T06:02:32.945Z,8.85
2023-05-03T06:05:02.738Z,8.50
2023-05-03T06:07:31.527Z,8.57
2023-05-03T06:10:01.031Z,8.23
2023-05-03T06:13:01.973Z,8.98
2023-05-03T06:15:38.609Z,7.65
2023-05-03T06:18:10.298Z,7.80
2023-05-03T06:20:39.388Z,8.50
2023-05-03T06:23:08.745Z,8.27
2023-05-03T06:25:39.666Z,8.20
2023-05-03T06:28:09.390Z,9.70
2023-05-03T06:30:38.817Z,8.25
2023-05-03T06:33:14.894Z,8.38
2023-05-03T06:35:48.176Z,8.30
2023-05-03T06:38:20.600Z,8.73
2023-05-03T06:40:51.033Z,7.97
2023-05-03T06:43:21.941Z,8.80
2023-05-03T06:46:03.255Z,9.07
2023-05-03T06:48:32.654Z,8.30
2023-05-03T06:51:01.529Z,8.30
2023-05-03T06:53:31.434Z,8.38
2023-05-03T06:56:00.538Z,8.50
2023-05-03T06:58:30.103Z,8.07
2023-05-03T07:00:59.270Z,15.35
2023-05-03T07:03:28.803Z,10.15
2023-05-03T07:05:58.057Z,8.63
2023-05-03T07:08:26.966Z,9.13
2023-05-03T07:10:55.936Z,9.88
2023-05-03T07:13:25.433Z,9.68
2023-05-03T07:15:54.657Z,10.57
2023-05-03T07:18:23.899Z,10.60
2023-05-03T07:20:52.847Z,9.88
2023-05-03T07:26:11.346Z,11.75
2023-05-03T07:28:41.186Z,11.70
2023-05-03T07:34:13.360Z,12.45
2023-05-03T07:40:43.207Z,10.55
2023-05-03T07:43:12.568Z,11.82
2023-05-03T07:45:41.528Z,12.15
2023-05-03T07:48:10.958Z,12.10
2023-05-03T07:50:42.905Z,12.73
2023-05-03T07:53:13.541Z,11.25
2023-05-03T07:55:42.781Z,10.30
2023-05-03T07:58:11.708Z,11.55
2023-05-03T08:00:40.986Z,11.38
2023-05-03T08:03:10.140Z,11.82
2023-05-03T08:05:39.635Z,9.75
2023-05-03T08:08:09.431Z,11.02
2023-05-03T08:10:38.982Z,11.20
2023-05-03T08:13:08.451Z,11.57
2023-05-03T08:15:37.594Z,10.15
2023-05-03T08:18:06.990Z,9.98
2023-05-03T08:20:37.971Z,10.70
2023-05-03T08:23:07.013Z,10.13
2023-05-03T08:25:38.271Z,11.00
2023-05-03T08:28:09.289Z,10.23
2023-05-03T08:30:38.948Z,10.63
2023-05-03T08:33:10.808Z,9.60
2023-05-03T08:35:40.023Z,10.32
2023-05-03T08:38:09.120Z,10.18
2023-05-03T08:40:40.800Z,10.13
2023-05-03T08:43:11.019Z,9.38
2023-05-03T08:45:40.245Z,9.95
2023-05-03T08:48:09.469Z,9.57
2023-05-03T08:50:43.206Z,9.15
2023-05-03T08:53:12.877Z,9.80
2023-05-03T08:55:42.358Z,8.90
2023-05-03T08:58:13.738Z,8.30
2023-05-03T09:00:45.618Z,10.88
2023-05-03T09:03:15.053Z,8.48
2023-05-03T09:05:45.256Z,10.02
2023-05-03T09:08:15.792Z,9.18
2023-05-03T09:10:45.194Z,10.68
2023-05-03T09:13:14.222Z,11.23
2023-05-03T09:15:46.377Z,9.00
2023-05-03T09:18:18.443Z,9.32
2023-05-03T09:20:56.001Z,9.32
2023-05-03T09:23:32.565Z,9.98
2023-05-03T09:26:02.058Z,9.30
2023-05-03T09:28:31.054Z,10.32
2023-05-03T09:31:08.803Z,10.38
2023-05-03T09:33:38.950Z,10.55
2023-05-03T09:36:08.301Z,9.32
2023-05-03T09:38:40.306Z,8.88
2023-05-03T09:41:09.971Z,8.73
2023-05-03T09:43:51.410Z,9.50
2023-05-03T09:46:21.566Z,9.10
2023-05-03T09:48:51.326Z,8.75
2023-05-03T09:51:21.279Z,9.73
2023-05-03T09:53:51.030Z,10.13
2023-05-03T09:56:23.647Z,12.77
2023-05-03T10:01:24.974Z,9.18
2023-05-03T10:03:59.145Z,9.43
2023-05-03T10:06:50.286Z,9.05
2023-05-03T10:09:40.953Z,9.63
2023-05-03T10:12:13.548Z,8.07
2023-05-03T10:14:44.979Z,8.82
2023-05-03T10:17:47.285Z,8.47
2023-05-03T10:20:53.463Z,9.25
2023-05-03T10:23:22.668Z,8.15
2023-05-03T10:26:11.123Z,9.00
2023-05-03T10:28:40.924Z,9.40
2023-05-03T10:31:46.643Z,9.68
2023-05-03T10:34:33.591Z,8.70
2023-05-03T10:37:12.697Z,10.07
2023-05-03T10:39:46.819Z,9.15
2023-05-03T10:42:17.163Z,8.93
2023-05-03T10:44:56.777Z,9.75
2023-05-03T10:47:26.293Z,9.00
2023-05-03T10:50:14.801Z,9.82
2023-05-03T10:52:44.428Z,9.98
2023-05-03T10:55:25.935Z,10.73
2023-05-03T10:57:57.596Z,9.95
2023-05-03T11:00:39.954Z,10.90
2023-05-03T11:03:28.887Z,13.05
2023-05-03T11:05:58.424Z,11.13
2023-05-03T11:08:29.017Z,16.80
2023-05-03T11:11:03.465Z,12.10
2023-05-03T11:13:33.140Z,11.68
2023-05-03T11:16:07.014Z,10.80
2023-05-03T11:18:36.634Z,11.55
2023-05-03T11:21:05.889Z,11.85
2023-05-03T11:23:35.093Z,10.75
2023-05-03T11:26:08.136Z,11.23
2023-05-03T11:28:40.314Z,11.00
2023-05-03T11:31:14.447Z,10.95
2023-05-03T11:33:44.124Z,13.20
2023-05-03T11:36:15.875Z,14.35
2023-05-03T11:38:45.190Z,13.35
2023-05-03T11:41:24.532Z,10.32
2023-05-03T11:44:03.782Z,14.40
2023-05-03T11:46:38.292Z,10.38
2023-05-03T11:49:07.782Z,10.60
2023-05-03T11:51:36.854Z,12.75
2023-05-03T11:54:21.002Z,10.95
2023-05-03T11:56:56.433Z,9.35
2023-05-03T12:03:34.056Z,14.45
2023-05-03T12:06:04.702Z,9.40
2023-05-03T12:08:37.818Z,11.07
2023-05-03T12:11:09.930Z,12.27
2023-05-03T12:13:40.834Z,10.20
2023-05-03T12:16:14.764Z,12.75
2023-05-03T12:19:04.016Z,8.30
2023-05-03T12:22:04.664Z,12.82
2023-05-03T12:28:40.902Z,6.47
2023-05-03T12:31:11.997Z,8.52
2023-05-03T12:33:43.707Z,9.45
2023-05-03T12:36:14.873Z,5.50
2023-05-03T12:38:44.495Z,7.15
2023-05-03T12:41:15.899Z,5.10
2023-05-03T12:43:52.613Z,4.60
2023-05-03T12:46:33.857Z,7.25
2023-05-03T12:51:36.822Z,5.82
2023-05-03T12:54:12.632Z,6.40
2023-05-03T12:56:41.945Z,5.43
2023-05-03T13:09:21.129Z,5.38
2023-05-03T13:11:53.651Z,5.75
2023-05-03T13:14:23.421Z,4.57
2023-05-03T13:16:52.975Z,5.03
2023-05-03T13:19:22.157Z,4.75
2023-05-03T13:21:51.053Z,5.07
2023-05-03T13:24:20.280Z,4.93
2023-05-03T13:26:50.110Z,5.50
2023-05-03T13:29:19.178Z,6.45
2023-05-03T13:31:48.163Z,8.00
2023-05-03T13:34:17.934Z,8.88
2023-05-03T13:36:46.853Z,9.00
2023-05-03T13:39:16.155Z,6.45
2023-05-03T13:41:48.027Z,4.45
2023-05-03T13:44:17.731Z,4.00
2023-05-03T13:46:47.148Z,4.28
2023-05-03T13:49:16.288Z,4.22
2023-05-03T13:51:45.253Z,4.32
2023-05-03T13:54:14.435Z,4.63
2023-05-03T13:56:43.783Z,4.10
2023-05-03T13:59:17.187Z,4.43
2023-05-03T14:01:46.945Z,4.97
2023-05-03T14:04:16.117Z,6.57
2023-05-03T14:06:45.340Z,4.70
2023-05-03T14:09:14.890Z,3.58
2023-05-03T14:11:44.110Z,4.97
2023-05-03T14:14:13.527Z,5.15
2023-05-03T14:16:42.897Z,5.18
2023-05-03T14:19:12.237Z,5.03
2023-05-03T14:21:46.049Z,4.97
2023-05-03T14:24:15.274Z,5.28
2023-05-03T14:26:44.270Z,5.93
2023-05-03T14:29:13.632Z,5.00
2023-05-03T14:31:42.675Z,5.65
2023-05-03T14:34:11.700Z,5.95
2023-05-03T14:36:44.719Z,6.55
2023-05-03T14:39:15.562Z,6.45
2023-05-03T14:41:44.878Z,6.60
2023-05-03T14:44:13.879Z,7.63
2023-05-03T14:46:43.047Z,6.72
2023-05-03T14:49:12.161Z,6.72
2023-05-03T14:51:44.104Z,7.28
2023-05-03T14:54:13.494Z,7.07
2023-05-03T14:56:42.344Z,7.80
2023-05-03T14:59:11.368Z,7.05
2023-05-03T15:01:40.548Z,7.10
2023-05-03T15:04:11.458Z,6.72
2023-05-03T15:06:42.223Z,6.35
2023-05-03T15:09:13.657Z,6.32
2023-05-03T15:11:43.139Z,6.32
2023-05-03T15:14:12.420Z,5.93
2023-05-03T15:16:41.610Z,6.15
2023-05-03T15:19:10.633Z,6.72
2023-05-03T15:21:52.451Z,6.10
2023-05-03T15:24:23.206Z,6.88
2023-05-03T15:26:52.611Z,6.00
2023-05-03T15:29:22.493Z,6.20
2023-05-03T15:31:51.773Z,6.60
2023-05-03T15:34:20.707Z,9.02
2023-05-03T15:36:49.791Z,9.43
2023-05-03T15:39:18.829Z,12.57
2023-05-03T15:41:48.162Z,10.75
2023-05-03T15:44:17.194Z,11.30
2023-05-03T15:46:46.536Z,10.25
2023-05-03T15:49:15.492Z,10.00
2023-05-03T15:51:44.631Z,8.27
2023-05-03T15:54:13.636Z,9.27
2023-05-03T15:56:42.967Z,9.32
2023-05-03T15:59:15.860Z,8.40
2023-05-03T16:01:45.227Z,8.30
2023-05-03T16:04:14.194Z,7.40
2023-05-03T16:06:43.464Z,6.97
2023-05-03T16:09:13.595Z,9.63
2023-05-03T16:11:42.641Z,7.57
2023-05-03T16:14:11.693Z,8.35
2023-05-03T16:16:41.283Z,8.07
2023-05-03T16:19:10.297Z,10.05
2023-05-03T16:21:39.360Z,9.38
2023-05-03T16:24:08.758Z,10.25
2023-05-03T16:26:37.873Z,11.15
2023-05-03T16:29:07.061Z,13.30
2023-05-03T16:31:35.885Z,12.52
2023-05-03T16:34:05.197Z,13.50
2023-05-03T16:36:34.637Z,12.93
2023-05-03T16:39:03.731Z,15.95
2023-05-03T16:41:32.609Z,37.03
2023-05-03T16:44:01.803Z,38.30
2023-05-03T16:46:37.076Z,39.58
2023-05-03T16:49:07.437Z,33.17
2023-05-03T16:51:36.783Z,34.92
2023-05-03T16:54:05.996Z,31.13
2023-05-03T16:56:35.349Z,21.98
2023-05-03T16:59:05.117Z,21.65
2023-05-03T17:01:34.380Z,20.73
2023-05-03T17:04:03.441Z,21.05
2023-05-03T17:06:32.673Z,14.82
2023-05-03T17:09:01.840Z,13.48
2023-05-03T17:11:31.435Z,12.70
2023-05-03T17:14:01.920Z,12.30
2023-05-03T17:16:31.107Z,12.10
2023-05-03T17:19:00.049Z,10.95
2023-05-03T17:21:29.149Z,11.38
2023-05-03T17:23:57.964Z,10.63
2023-05-03T17:26:27.125Z,10.20
2023-05-03T17:28:55.887Z,11.75
2023-05-03T17:31:25.005Z,11.00
2023-05-03T17:33:54.027Z,10.38
2023-05-03T17:36:23.196Z,10.63
2023-05-03T17:38:52.005Z,10.43
2023-05-03T17:41:21.361Z,11.00
2023-05-03T17:43:51.590Z,10.73
2023-05-03T17:46:21.328Z,9.73
2023-05-03T17:48:50.329Z,9.80
2023-05-03T17:51:19.395Z,9.98
2023-05-03T17:53:48.651Z,10.13
2023-05-03T17:56:19.332Z,11.25
2023-05-03T17:58:48.508Z,11.63
2023-05-03T18:01:17.598Z,15.35
2023-05-03T18:03:46.795Z,16.30
2023-05-03T18:06:15.843Z,18.35
2023-05-03T18:08:45.204Z,21.42
2023-05-03T18:11:14.172Z,20.08
2023-05-03T18:13:43.760Z,15.80
2023-05-03T18:16:13.198Z,15.35
2023-05-03T18:18:42.310Z,13.40
2023-05-03T18:21:12.731Z,12.93
2023-05-03T18:23:43.146Z,10.82
2023-05-03T18:26:13.574Z,9.48
2023-05-03T18:28:42.470Z,10.13
2023-05-03T18:31:12.684Z,9.60
2023-05-03T18:33:41.895Z,10.07
2023-05-03T18:36:12.503Z,10.07
2023-05-03T18:38:42.902Z,13.35
2023-05-03T18:41:17.619Z,13.35
2023-05-03T18:43:49.000Z,12.27
2023-05-03T18:46:20.158Z,12.05
2023-05-03T18:48:49.431Z,14.13
2023-05-03T18:51:18.246Z,11.88
2023-05-03T18:53:47.295Z,13.30
2023-05-03T18:56:16.577Z,14.23
2023-05-03T18:58:47.849Z,20.33
2023-05-03T19:01:17.218Z,18.30
2023-05-03T19:03:46.156Z,17.13
2023-05-03T19:06:15.529Z,14.68
2023-05-03T19:08:44.781Z,14.98
2023-05-03T19:11:17.984Z,20.60
2023-05-03T19:13:47.624Z,23.50
2023-05-03T19:16:16.649Z,26.25
2023-05-03T19:18:46.340Z,27.77
2023-05-03T19:21:18.281Z,24.38
2023-05-03T19:23:47.639Z,22.90
2023-05-03T19:26:16.578Z,21.02
2023-05-03T19:28:45.967Z,19.98
2023-05-03T19:31:14.872Z,18.60
2023-05-03T19:33:43.851Z,18.27
2023-05-03T19:36:15.663Z,17.52
2023-05-03T19:38:44.800Z,16.70
2023-05-03T19:41:13.652Z,18.08
2023-05-03T19:43:43.182Z,18.30
2023-05-03T19:46:12.192Z,19.27
2023-05-03T19:48:41.398Z,16.95
2023-05-03T19:51:15.323Z,17.83
2023-05-03T19:53:46.551Z,17.42
2023-05-03T19:58:45.734Z,17.67
2023-05-03T20:01:15.590Z,18.02
2023-05-03T20:03:45.359Z,18.85
2023-05-03T20:06:15.624Z,19.42
2023-05-03T20:08:45.605Z,18.23
2023-05-03T20:11:15.397Z,19.02
2023-05-03T20:13:45.183Z,18.67
2023-05-03T20:16:15.155Z,18.92
2023-05-03T20:18:44.916Z,19.92
2023-05-03T20:21:15.299Z,19.42
2023-05-03T20:23:44.672Z,19.48
2023-05-03T20:26:14.841Z,19.95
2023-05-03T20:28:45.923Z,22.38
2023-05-03T20:31:17.140Z,21.88
2023-05-03T20:33:48.470Z,22.42
2023-05-03T20:36:19.795Z,22.75
2023-05-03T20:38:50.284Z,23.65
2023-05-03T20:41:21.347Z,22.23
2023-05-03T20:43:57.077Z,24.27
2023-05-03T20:46:28.264Z,23.13
2023-05-03T20:49:00.194Z,24.90
2023-05-03T20:51:31.430Z,24.45
2023-05-03T20:54:02.803Z,25.33
2023-05-03T20:56:35.433Z,27.17
2023-05-03T21:01:35.795Z,23.70
2023-05-03T21:04:07.190Z,24.60
2023-05-03T21:06:39.957Z,24.63
2023-05-03T21:09:12.003Z,24.67
2023-05-03T21:11:43.928Z,27.88
2023-05-03T21:14:16.016Z,26.02
2023-05-03T21:16:46.763Z,27.75
2023-05-03T21:19:17.839Z,26.98
2023-05-03T21:21:48.715Z,28.33
2023-05-03T21:24:20.498Z,28.83
2023-05-03T21:26:51.185Z,28.10
2023-05-03T21:29:21.860Z,27.70
2023-05-03T21:31:53.112Z,24.60
2023-05-03T21:34:24.385Z,26.60
2023-05-03T21:36:55.727Z,27.85
2023-05-03T21:39:26.233Z,25.90
2023-05-03T21:41:56.799Z,25.63
2023-05-03T21:44:28.315Z,25.70
2023-05-03T21:46:59.524Z,25.30
2023-05-03T21:49:30.845Z,23.45
2023-05-03T21:52:02.154Z,23.65
2023-05-03T21:54:33.403Z,22.80
2023-05-03T21:57:05.076Z,29.35
2023-05-03T21:59:36.133Z,30.25
2023-05-03T22:02:07.404Z,25.10
2023-05-03T22:04:38.154Z,21.35
2023-05-03T22:07:09.569Z,21.05
2023-05-03T22:09:40.097Z,22.27
2023-05-03T22:12:22.484Z,20.45
2023-05-03T22:14:55.347Z,23.27
2023-05-03T22:17:28.173Z,22.30
2023-05-03T22:19:59.498Z,21.48
2023-05-03T22:22:30.343Z,22.33
2023-05-03T22:25:04.557Z,26.50
2023-05-03T22:27:39.082Z,29.23
2023-05-03T22:30:11.104Z,23.65
2023-05-03T22:32:41.685Z,21.33
2023-05-03T22:35:13.655Z,22.45
2023-05-03T22:37:44.472Z,22.77
2023-05-03T22:40:15.693Z,24.23
2023-05-03T22:42:46.852Z,24.35
2023-05-03T22:45:17.576Z,24.70
2023-05-03T22:47:49.745Z,24.08
2023-05-03T22:50:22.414Z,23.35
2023-05-03T22:52:52.890Z,24.33
2023-05-03T22:55:27.669Z,24.48
2023-05-03T22:57:59.110Z,23.02
2023-05-03T23:00:29.645Z,24.00
2023-05-03T23:03:00.951Z,24.08
2023-05-03T23:05:31.653Z,26.23
2023-05-03T23:08:03.624Z,24.13
2023-05-03T23:10:34.157Z,26.95
2023-05-03T23:13:05.168Z,27.95
2023-05-03T23:15:36.320Z,31.38
2023-05-03T23:18:09.164Z,63.75
2023-05-03T23:23:10.159Z,65.43
2023-05-03T23:25:40.901Z,63.63
2023-05-03T23:28:11.409Z,55.53
2023-05-03T23:30:51.492Z,51.97
2023-05-03T23:33:24.012Z,46.25
2023-05-03T23:38:27.420Z,39.72
2023-05-03T23:40:57.913Z,40.08
2023-05-03T23:43:28.962Z,36.78
2023-05-03T23:45:59.826Z,38.25
2023-05-03T23:48:30.990Z,37.20
2023-05-03T23:51:01.449Z,36.92
2023-05-03T23:53:32.898Z,37.15
2023-05-03T23:56:04.051Z,37.47
2023-05-03T23:58:35.466Z,36.70
